sensor_id;sensor_type;location;lat;lon;timestamp;temperature;humidity
5246;DHT22;54412;51.206;6.888;2023-02-28T00:00:13;3.00;99.90
5246;DHT22;54412;51.206;6.888;2023-02-28T00:02:41;3.00;99.90
5246;DHT22;54412;51.206;6.888;2023-02-28T00:05:09;3.00;99.90
5246;DHT22;54412;51.206;6.888;2023-02-28T00:07:36;3.00;99.90
5246;DHT22;54412;51.206;6.888;2023-02-28T00:10:04;2.90;99.90
5246;DHT22;54412;51.206;6.888;2023-02-28T00:12:33;2.90;99.90
5246;DHT22;54412;51.206;6.888;2023-02-28T00:15:00;2.70;99.90
5246;DHT22;54412;51.206;6.888;2023-02-28T00:17:25;2.70;99.90
5246;DHT22;54412;51.206;6.888;2023-02-28T00:19:51;2.70;99.90
5246;DHT22;54412;51.206;6.888;2023-02-28T00:22:19;2.60;99.90
5246;DHT22;54412;51.206;6.888;2023-02-28T00:24:46;2.70;99.90
5246;DHT22;54412;51.206;6.888;2023-02-28T00:27:13;2.80;99.90
5246;DHT22;54412;51.206;6.888;2023-02-28T00:29:39;2.80;99.90
5246;DHT22;54412;51.206;6.888;2023-02-28T00:32:06;2.80;99.90
5246;DHT22;54412;51.206;6.888;2023-02-28T00:34:32;2.80;99.90
5246;DHT22;54412;51.206;6.888;2023-02-28T00:37:04;2.90;99.90
5246;DHT22;54412;51.206;6.888;2023-02-28T00:39:31;2.90;99.90
5246;DHT22;54412;51.206;6.888;2023-02-28T00:41:58;2.80;99.90
5246;DHT22;54412;51.206;6.888;2023-02-28T00:44:24;2.80;99.90
5246;DHT22;54412;51.206;6.888;2023-02-28T00:46:50;2.90;99.90
5246;DHT22;54412;51.206;6.888;2023-02-28T00:49:17;3.00;99.90
5246;DHT22;54412;51.206;6.888;2023-02-28T00:51:43;3.10;99.90
5246;DHT22;54412;51.206;6.888;2023-02-28T00:54:08;3.10;99.90
5246;DHT22;54412;51.206;6.888;2023-02-28T00:56:34;3.20;99.90
5246;DHT22;54412;51.206;6.888;2023-02-28T00:59:00;3.20;99.90
5246;DHT22;54412;51.206;6.888;2023-02-28T01:01:25;3.20;99.90
5246;DHT22;54412;51.206;6.888;2023-02-28T01:03:51;3.20;99.90
5246;DHT22;54412;51.206;6.888;2023-02-28T01:06:16;3.20;99.90
5246;DHT22;54412;51.206;6.888;2023-02-28T01:08:42;3.20;99.90
5246;DHT22;54412;51.206;6.888;2023-02-28T01:11:12;3.00;99.90
5246;DHT22;54412;51.206;6.888;2023-02-28T01:13:41;3.00;99.90
5246;DHT22;54412;51.206;6.888;2023-02-28T01:16:07;3.00;99.90
5246;DHT22;54412;51.206;6.888;2023-02-28T01:18:33;2.90;99.90
5246;DHT22;54412;51.206;6.888;2023-02-28T01:21:07;2.90;99.90
5246;DHT22;54412;51.206;6.888;2023-02-28T01:23:34;2.90;99.90
5246;DHT22;54412;51.206;6.888;2023-02-28T01:26:05;2.90;99.90
5246;DHT22;54412;51.206;6.888;2023-02-28T01:28:32;2.80;99.90
5246;DHT22;54412;51.206;6.888;2023-02-28T01:30:59;2.80;99.90
5246;DHT22;54412;51.206;6.888;2023-02-28T01:33:24;2.80;99.90
5246;DHT22;54412;51.206;6.888;2023-02-28T01:35:58;2.80;99.90
5246;DHT22;54412;51.206;6.888;2023-02-28T01:38:24;2.70;99.90
5246;DHT22;54412;51.206;6.888;2023-02-28T01:40:50;2.70;99.90
5246;DHT22;54412;51.206;6.888;2023-02-28T01:43:25;2.60;99.90
5246;DHT22;54412;51.206;6.888;2023-02-28T01:45:53;2.60;99.90
5246;DHT22;54412;51.206;6.888;2023-02-28T01:48:22;2.70;99.90
5246;DHT22;54412;51.206;6.888;2023-02-28T01:51:01;2.60;99.90
5246;DHT22;54412;51.206;6.888;2023-02-28T01:53:37;2.60;99.90
5246;DHT22;54412;51.206;6.888;2023-02-28T01:56:10;2.50;99.90
5246;DHT22;54412;51.206;6.888;2023-02-28T01:58:39;2.50;99.90
5246;DHT22;54412;51.206;6.888;2023-02-28T02:01:05;2.50;99.90
5246;DHT22;54412;51.206;6.888;2023-02-28T02:03:31;2.50;99.90
5246;DHT22;54412;51.206;6.888;2023-02-28T02:05:57;2.40;99.90
5246;DHT22;54412;51.206;6.888;2023-02-28T02:08:25;2.50;99.90
5246;DHT22;54412;51.206;6.888;2023-02-28T02:11:01;2.40;99.90
5246;DHT22;54412;51.206;6.888;2023-02-28T02:25:25;2.40;99.90
5246;DHT22;54412;51.206;6.888;2023-02-28T02:34:19;2.30;99.90
5246;DHT22;54412;51.206;6.888;2023-02-28T02:39:50;2.30;99.90
5246;DHT22;54412;51.206;6.888;2023-02-28T02:42:37;2.40;99.90
5246;DHT22;54412;51.206;6.888;2023-02-28T02:45:22;2.50;99.90
5246;DHT22;54412;51.206;6.888;2023-02-28T02:47:55;2.50;99.90
5246;DHT22;54412;51.206;6.888;2023-02-28T02:50:29;2.40;99.90
5246;DHT22;54412;51.206;6.888;2023-02-28T02:53:00;2.40;99.90
5246;DHT22;54412;51.206;6.888;2023-02-28T02:55:30;2.30;99.90
5246;DHT22;54412;51.206;6.888;2023-02-28T02:58:02;2.30;99.90
5246;DHT22;54412;51.206;6.888;2023-02-28T03:00:43;2.30;99.90
5246;DHT22;54412;51.206;6.888;2023-02-28T03:03:15;2.30;99.90
5246;DHT22;54412;51.206;6.888;2023-02-28T03:05:48;2.30;99.90
5246;DHT22;54412;51.206;6.888;2023-02-28T03:08:15;2.20;99.90
5246;DHT22;54412;51.206;6.888;2023-02-28T03:10:48;2.20;99.90
5246;DHT22;54412;51.206;6.888;2023-02-28T03:16:28;2.30;99.90
5246;DHT22;54412;51.206;6.888;2023-02-28T03:34:07;2.20;99.90
5246;DHT22;54412;51.206;6.888;2023-02-28T03:36:39;2.10;99.90
5246;DHT22;54412;51.206;6.888;2023-02-28T03:39:47;2.20;99.90
5246;DHT22;54412;51.206;6.888;2023-02-28T03:42:23;2.10;99.90
5246;DHT22;54412;51.206;6.888;2023-02-28T03:44:59;2.10;99.90
5246;DHT22;54412;51.206;6.888;2023-02-28T03:47:37;2.20;99.90
5246;DHT22;54412;51.206;6.888;2023-02-28T03:50:17;2.30;99.90
5246;DHT22;54412;51.206;6.888;2023-02-28T03:53:01;2.30;99.90
5246;DHT22;54412;51.206;6.888;2023-02-28T03:55:39;2.30;99.90
5246;DHT22;54412;51.206;6.888;2023-02-28T04:01:20;2.20;99.90
5246;DHT22;54412;51.206;6.888;2023-02-28T04:03:50;2.00;99.90
5246;DHT22;54412;51.206;6.888;2023-02-28T04:06:18;2.10;99.90
5246;DHT22;54412;51.206;6.888;2023-02-28T04:08:46;2.20;99.90
5246;DHT22;54412;51.206;6.888;2023-02-28T04:11:32;2.20;99.90
5246;DHT22;54412;51.206;6.888;2023-02-28T04:14:00;2.10;99.90
5246;DHT22;54412;51.206;6.888;2023-02-28T04:16:30;2.10;99.90
5246;DHT22;54412;51.206;6.888;2023-02-28T04:18:57;2.10;99.90
5246;DHT22;54412;51.206;6.888;2023-02-28T04:21:32;2.20;99.90
5246;DHT22;54412;51.206;6.888;2023-02-28T04:23:59;2.10;99.90
5246;DHT22;54412;51.206;6.888;2023-02-28T04:26:33;2.10;99.90
5246;DHT22;54412;51.206;6.888;2023-02-28T04:29:01;2.10;99.90
5246;DHT22;54412;51.206;6.888;2023-02-28T04:31:28;2.00;99.90
5246;DHT22;54412;51.206;6.888;2023-02-28T04:33:53;2.00;99.90
5246;DHT22;54412;51.206;6.888;2023-02-28T04:36:19;2.10;99.90
5246;DHT22;54412;51.206;6.888;2023-02-28T04:38:45;2.10;99.90
5246;DHT22;54412;51.206;6.888;2023-02-28T04:41:12;2.10;99.90
5246;DHT22;54412;51.206;6.888;2023-02-28T04:43:38;2.10;99.90
5246;DHT22;54412;51.206;6.888;2023-02-28T04:46:05;2.10;99.90
5246;DHT22;54412;51.206;6.888;2023-02-28T04:48:34;2.10;99.90
5246;DHT22;54412;51.206;6.888;2023-02-28T04:51:05;2.20;99.90
5246;DHT22;54412;51.206;6.888;2023-02-28T04:53:35;2.20;99.90
5246;DHT22;54412;51.206;6.888;2023-02-28T04:56:02;2.10;99.90
5246;DHT22;54412;51.206;6.888;2023-02-28T04:58:28;2.00;99.90
5246;DHT22;54412;51.206;6.888;2023-02-28T05:01:01;2.00;99.90
5246;DHT22;54412;51.206;6.888;2023-02-28T05:03:39;2.10;99.90
5246;DHT22;54412;51.206;6.888;2023-02-28T05:06:08;2.10;99.90
5246;DHT22;54412;51.206;6.888;2023-02-28T05:08:35;2.10;99.90
5246;DHT22;54412;51.206;6.888;2023-02-28T05:11:01;2.10;99.90
5246;DHT22;54412;51.206;6.888;2023-02-28T05:13:28;2.10;99.90
5246;DHT22;54412;51.206;6.888;2023-02-28T05:15:54;2.10;99.90
5246;DHT22;54412;51.206;6.888;2023-02-28T05:18:20;2.10;99.90
5246;DHT22;54412;51.206;6.888;2023-02-28T05:20:46;1.90;99.90
5246;DHT22;54412;51.206;6.888;2023-02-28T05:23:12;1.90;99.90
5246;DHT22;54412;51.206;6.888;2023-02-28T05:25:40;1.90;99.90
5246;DHT22;54412;51.206;6.888;2023-02-28T05:28:07;2.00;99.90
5246;DHT22;54412;51.206;6.888;2023-02-28T05:30:33;2.00;99.90
5246;DHT22;54412;51.206;6.888;2023-02-28T05:32:59;2.00;99.90
5246;DHT22;54412;51.206;6.888;2023-02-28T05:35:25;1.90;99.90
5246;DHT22;54412;51.206;6.888;2023-02-28T05:37:51;1.80;99.90
5246;DHT22;54412;51.206;6.888;2023-02-28T05:40:17;1.90;99.90
5246;DHT22;54412;51.206;6.888;2023-02-28T05:42:46;1.80;99.90
5246;DHT22;54412;51.206;6.888;2023-02-28T05:45:12;1.80;99.90
5246;DHT22;54412;51.206;6.888;2023-02-28T05:47:38;1.80;99.90
5246;DHT22;54412;51.206;6.888;2023-02-28T05:50:05;1.70;99.90
5246;DHT22;54412;51.206;6.888;2023-02-28T05:52:31;1.80;99.90
5246;DHT22;54412;51.206;6.888;2023-02-28T05:54:57;1.80;99.90
5246;DHT22;54412;51.206;6.888;2023-02-28T05:57:23;1.70;99.90
5246;DHT22;54412;51.206;6.888;2023-02-28T05:59:49;1.60;99.90
5246;DHT22;54412;51.206;6.888;2023-02-28T06:02:17;1.60;99.90
5246;DHT22;54412;51.206;6.888;2023-02-28T06:04:43;1.70;99.90
5246;DHT22;54412;51.206;6.888;2023-02-28T06:07:10;1.70;99.90
5246;DHT22;54412;51.206;6.888;2023-02-28T06:09:36;1.70;99.90
5246;DHT22;54412;51.206;6.888;2023-02-28T06:12:04;1.60;99.90
5246;DHT22;54412;51.206;6.888;2023-02-28T06:14:33;1.70;99.90
5246;DHT22;54412;51.206;6.888;2023-02-28T06:17:00;1.70;99.90
5246;DHT22;54412;51.206;6.888;2023-02-28T06:19:27;1.70;99.90
5246;DHT22;54412;51.206;6.888;2023-02-28T06:21:55;1.90;99.90
5246;DHT22;54412;51.206;6.888;2023-02-28T06:24:23;2.00;99.90
5246;DHT22;54412;51.206;6.888;2023-02-28T06:26:53;2.10;99.90
5246;DHT22;54412;51.206;6.888;2023-02-28T06:29:18;2.00;99.90
5246;DHT22;54412;51.206;6.888;2023-02-28T06:31:45;1.80;99.90
5246;DHT22;54412;51.206;6.888;2023-02-28T06:34:12;1.90;99.90
5246;DHT22;54412;51.206;6.888;2023-02-28T06:36:39;1.90;99.90
5246;DHT22;54412;51.206;6.888;2023-02-28T06:39:06;1.80;99.90
5246;DHT22;54412;51.206;6.888;2023-02-28T06:41:33;1.70;99.90
5246;DHT22;54412;51.206;6.888;2023-02-28T06:44:12;1.80;99.90
5246;DHT22;54412;51.206;6.888;2023-02-28T06:46:41;1.80;99.90
5246;DHT22;54412;51.206;6.888;2023-02-28T06:49:09;1.70;99.90
5246;DHT22;54412;51.206;6.888;2023-02-28T06:51:37;1.70;99.90
5246;DHT22;54412;51.206;6.888;2023-02-28T06:54:05;1.70;99.90
5246;DHT22;54412;51.206;6.888;2023-02-28T06:56:35;2.10;99.90
5246;DHT22;54412;51.206;6.888;2023-02-28T06:59:01;1.80;99.90
5246;DHT22;54412;51.206;6.888;2023-02-28T07:01:27;1.80;99.90
5246;DHT22;54412;51.206;6.888;2023-02-28T07:03:53;1.80;99.90
5246;DHT22;54412;51.206;6.888;2023-02-28T07:06:24;1.90;99.90
5246;DHT22;54412;51.206;6.888;2023-02-28T07:08:51;1.80;99.90
5246;DHT22;54412;51.206;6.888;2023-02-28T07:11:19;2.00;99.90
5246;DHT22;54412;51.206;6.888;2023-02-28T07:13:48;2.00;99.90
5246;DHT22;54412;51.206;6.888;2023-02-28T07:16:14;2.00;99.90
5246;DHT22;54412;51.206;6.888;2023-02-28T07:18:40;1.90;99.90
5246;DHT22;54412;51.206;6.888;2023-02-28T07:21:08;1.90;99.90
5246;DHT22;54412;51.206;6.888;2023-02-28T07:23:35;1.90;99.90
5246;DHT22;54412;51.206;6.888;2023-02-28T07:26:03;2.00;99.90
5246;DHT22;54412;51.206;6.888;2023-02-28T07:28:30;2.20;99.90
5246;DHT22;54412;51.206;6.888;2023-02-28T07:30:56;2.10;99.90
5246;DHT22;54412;51.206;6.888;2023-02-28T07:33:22;2.20;99.90
5246;DHT22;54412;51.206;6.888;2023-02-28T07:35:49;2.40;99.90
5246;DHT22;54412;51.206;6.888;2023-02-28T07:38:15;2.40;99.90
5246;DHT22;54412;51.206;6.888;2023-02-28T07:40:41;2.40;99.90
5246;DHT22;54412;51.206;6.888;2023-02-28T07:43:06;2.40;99.90
5246;DHT22;54412;51.206;6.888;2023-02-28T07:45:32;2.50;99.90
5246;DHT22;54412;51.206;6.888;2023-02-28T07:48:00;2.80;99.90
5246;DHT22;54412;51.206;6.888;2023-02-28T07:50:26;2.90;99.90
5246;DHT22;54412;51.206;6.888;2023-02-28T07:52:57;3.00;99.90
5246;DHT22;54412;51.206;6.888;2023-02-28T07:55:23;3.10;99.90
5246;DHT22;54412;51.206;6.888;2023-02-28T07:57:49;3.40;99.90
5246;DHT22;54412;51.206;6.888;2023-02-28T08:00:15;3.60;99.90
5246;DHT22;54412;51.206;6.888;2023-02-28T08:02:40;3.70;99.90
5246;DHT22;54412;51.206;6.888;2023-02-28T08:05:07;3.70;99.90
5246;DHT22;54412;51.206;6.888;2023-02-28T08:07:33;3.90;99.90
5246;DHT22;54412;51.206;6.888;2023-02-28T08:09:59;4.10;99.90
5246;DHT22;54412;51.206;6.888;2023-02-28T08:12:25;4.20;99.90
5246;DHT22;54412;51.206;6.888;2023-02-28T08:14:51;4.50;99.90
5246;DHT22;54412;51.206;6.888;2023-02-28T08:17:17;4.50;99.90
5246;DHT22;54412;51.206;6.888;2023-02-28T08:19:45;4.60;99.90
5246;DHT22;54412;51.206;6.888;2023-02-28T08:22:11;4.80;99.90
5246;DHT22;54412;51.206;6.888;2023-02-28T08:24:37;5.00;99.90
5246;DHT22;54412;51.206;6.888;2023-02-28T08:27:04;5.30;99.90
5246;DHT22;54412;51.206;6.888;2023-02-28T08:29:29;5.40;99.20
5246;DHT22;54412;51.206;6.888;2023-02-28T08:31:55;5.60;97.80
5246;DHT22;54412;51.206;6.888;2023-02-28T08:34:22;5.80;96.20
5246;DHT22;54412;51.206;6.888;2023-02-28T08:36:48;5.80;95.70
5246;DHT22;54412;51.206;6.888;2023-02-28T08:39:14;5.90;95.60
5246;DHT22;54412;51.206;6.888;2023-02-28T08:41:39;6.10;95.40
5246;DHT22;54412;51.206;6.888;2023-02-28T08:44:05;6.20;96.30
5246;DHT22;54412;51.206;6.888;2023-02-28T08:46:31;6.40;95.60
5246;DHT22;54412;51.206;6.888;2023-02-28T08:48:57;6.70;95.70
5246;DHT22;54412;51.206;6.888;2023-02-28T08:51:27;6.90;94.40
5246;DHT22;54412;51.206;6.888;2023-02-28T08:53:54;6.80;92.40
5246;DHT22;54412;51.206;6.888;2023-02-28T08:56:22;6.90;92.60
5246;DHT22;54412;51.206;6.888;2023-02-28T08:58:49;7.00;91.80
5246;DHT22;54412;51.206;6.888;2023-02-28T09:01:21;7.00;90.50
5246;DHT22;54412;51.206;6.888;2023-02-28T09:03:50;7.10;90.60
5246;DHT22;54412;51.206;6.888;2023-02-28T09:06:18;7.30;91.30
5246;DHT22;54412;51.206;6.888;2023-02-28T09:08:45;7.40;88.60
5246;DHT22;54412;51.206;6.888;2023-02-28T09:11:11;7.20;87.10
5246;DHT22;54412;51.206;6.888;2023-02-28T09:13:38;7.10;87.50
5246;DHT22;54412;51.206;6.888;2023-02-28T09:16:06;6.80;87.20
5246;DHT22;54412;51.206;6.888;2023-02-28T09:18:37;7.00;87.10
5246;DHT22;54412;51.206;6.888;2023-02-28T09:21:05;7.40;86.60
5246;DHT22;54412;51.206;6.888;2023-02-28T09:23:32;7.60;84.80
5246;DHT22;54412;51.206;6.888;2023-02-28T09:25:58;7.80;84.00
5246;DHT22;54412;51.206;6.888;2023-02-28T09:28:23;7.80;82.10
5246;DHT22;54412;51.206;6.888;2023-02-28T09:30:51;7.60;85.10
5246;DHT22;54412;51.206;6.888;2023-02-28T09:33:20;8.10;86.00
5246;DHT22;54412;51.206;6.888;2023-02-28T09:35:47;8.70;88.50
5246;DHT22;54412;51.206;6.888;2023-02-28T09:38:13;9.30;86.60
5246;DHT22;54412;51.206;6.888;2023-02-28T09:41:03;8.90;79.80
5246;DHT22;54412;51.206;6.888;2023-02-28T09:43:39;8.60;80.10
5246;DHT22;54412;51.206;6.888;2023-02-28T09:49:00;8.20;79.80
5246;DHT22;54412;51.206;6.888;2023-02-28T09:54:21;8.60;90.00
5246;DHT22;54412;51.206;6.888;2023-02-28T09:56:51;8.90;91.20
5246;DHT22;54412;51.206;6.888;2023-02-28T10:05:37;9.20;83.80
5246;DHT22;54412;51.206;6.888;2023-02-28T10:08:14;8.30;80.60
5246;DHT22;54412;51.206;6.888;2023-02-28T10:10:57;7.70;81.00
5246;DHT22;54412;51.206;6.888;2023-02-28T10:16:31;8.70;78.60
5246;DHT22;54412;51.206;6.888;2023-02-28T10:19:12;8.20;75.90
5246;DHT22;54412;51.206;6.888;2023-02-28T10:24:30;8.10;79.30
5246;DHT22;54412;51.206;6.888;2023-02-28T10:27:06;7.50;78.40
5246;DHT22;54412;51.206;6.888;2023-02-28T10:29:42;7.60;77.30
5246;DHT22;54412;51.206;6.888;2023-02-28T10:32:15;7.50;75.40
5246;DHT22;54412;51.206;6.888;2023-02-28T10:34:43;8.00;76.50
5246;DHT22;54412;51.206;6.888;2023-02-28T10:37:11;8.30;75.10
5246;DHT22;54412;51.206;6.888;2023-02-28T10:39:40;8.30;76.30
5246;DHT22;54412;51.206;6.888;2023-02-28T10:45:15;8.00;74.00
5246;DHT22;54412;51.206;6.888;2023-02-28T11:01:45;8.60;76.80
5246;DHT22;54412;51.206;6.888;2023-02-28T11:04:33;9.10;76.00
5246;DHT22;54412;51.206;6.888;2023-02-28T11:09:48;9.60;74.20
5246;DHT22;54412;51.206;6.888;2023-02-28T11:12:40;9.60;72.90
5246;DHT22;54412;51.206;6.888;2023-02-28T11:15:34;9.10;71.00
5246;DHT22;54412;51.206;6.888;2023-02-28T11:20:38;9.40;71.80
5246;DHT22;54412;51.206;6.888;2023-02-28T11:23:12;8.50;71.30
5246;DHT22;54412;51.206;6.888;2023-02-28T11:25:39;7.80;75.40
5246;DHT22;54412;51.206;6.888;2023-02-28T11:28:34;7.40;76.70
5246;DHT22;54412;51.206;6.888;2023-02-28T11:31:06;7.20;77.70
5246;DHT22;54412;51.206;6.888;2023-02-28T11:33:53;7.30;77.50
5246;DHT22;54412;51.206;6.888;2023-02-28T11:36:24;6.80;78.30
5246;DHT22;54412;51.206;6.888;2023-02-28T11:39:00;7.00;80.20
5246;DHT22;54412;51.206;6.888;2023-02-28T11:44:31;6.70;78.80
5246;DHT22;54412;51.206;6.888;2023-02-28T11:47:37;7.20;81.40
5246;DHT22;54412;51.206;6.888;2023-02-28T11:50:14;8.30;77.50
5246;DHT22;54412;51.206;6.888;2023-02-28T11:52:54;8.70;74.70
5246;DHT22;54412;51.206;6.888;2023-02-28T11:55:33;8.80;73.00
5246;DHT22;54412;51.206;6.888;2023-02-28T11:58:34;9.20;73.80
5246;DHT22;54412;51.206;6.888;2023-02-28T12:10:35;9.60;71.90
5246;DHT22;54412;51.206;6.888;2023-02-28T12:13:21;10.50;72.60
5246;DHT22;54412;51.206;6.888;2023-02-28T12:27:47;10.50;67.80
5246;DHT22;54412;51.206;6.888;2023-02-28T12:30:35;11.00;67.10
5246;DHT22;54412;51.206;6.888;2023-02-28T12:33:10;11.20;66.00
5246;DHT22;54412;51.206;6.888;2023-02-28T12:35:58;11.00;65.90
5246;DHT22;54412;51.206;6.888;2023-02-28T12:38:35;11.40;66.50
5246;DHT22;54412;51.206;6.888;2023-02-28T12:41:17;10.70;69.70
5246;DHT22;54412;51.206;6.888;2023-02-28T12:43:55;10.70;69.80
5246;DHT22;54412;51.206;6.888;2023-02-28T12:46:41;10.80;67.50
5246;DHT22;54412;51.206;6.888;2023-02-28T12:49:23;10.90;68.80
5246;DHT22;54412;51.206;6.888;2023-02-28T12:51:57;11.00;68.80
5246;DHT22;54412;51.206;6.888;2023-02-28T12:54:49;11.20;67.60
5246;DHT22;54412;51.206;6.888;2023-02-28T13:00:38;11.20;68.70
5246;DHT22;54412;51.206;6.888;2023-02-28T13:06:23;11.30;67.60
5246;DHT22;54412;51.206;6.888;2023-02-28T13:09:14;11.80;66.70
5246;DHT22;54412;51.206;6.888;2023-02-28T13:11:49;12.40;65.00
5246;DHT22;54412;51.206;6.888;2023-02-28T13:14:37;11.70;63.10
5246;DHT22;54412;51.206;6.888;2023-02-28T13:17:10;12.20;62.70
5246;DHT22;54412;51.206;6.888;2023-02-28T13:22:20;11.40;62.20
5246;DHT22;54412;51.206;6.888;2023-02-28T13:26:05;11.40;65.10
5246;DHT22;54412;51.206;6.888;2023-02-28T13:28:13;11.10;67.30
5246;DHT22;54412;51.206;6.888;2023-02-28T13:31:13;11.70;67.20
5246;DHT22;54412;51.206;6.888;2023-02-28T13:36:29;11.40;65.50
5246;DHT22;54412;51.206;6.888;2023-02-28T13:39:11;11.70;65.10
5246;DHT22;54412;51.206;6.888;2023-02-28T13:47:29;10.90;63.70
5246;DHT22;54412;51.206;6.888;2023-02-28T13:50:37;10.80;66.10
5246;DHT22;54412;51.206;6.888;2023-02-28T13:59:19;11.20;66.60
5246;DHT22;54412;51.206;6.888;2023-02-28T14:02:03;10.90;67.90
5246;DHT22;54412;51.206;6.888;2023-02-28T14:05:05;11.40;67.80
5246;DHT22;54412;51.206;6.888;2023-02-28T14:07:48;12.10;66.10
5246;DHT22;54412;51.206;6.888;2023-02-28T14:10:25;12.10;66.30
5246;DHT22;54412;51.206;6.888;2023-02-28T14:18:37;11.70;66.40
5246;DHT22;54412;51.206;6.888;2023-02-28T14:21:29;11.50;65.80
5246;DHT22;54412;51.206;6.888;2023-02-28T14:24:22;11.70;66.80
5246;DHT22;54412;51.206;6.888;2023-02-28T14:36:33;11.50;67.50
5246;DHT22;54412;51.206;6.888;2023-02-28T14:39:20;11.40;66.90
5246;DHT22;54412;51.206;6.888;2023-02-28T14:41:49;10.70;66.60
5246;DHT22;54412;51.206;6.888;2023-02-28T14:44:23;10.30;68.40
5246;DHT22;54412;51.206;6.888;2023-02-28T14:46:53;10.50;70.60
5246;DHT22;54412;51.206;6.888;2023-02-28T14:49:31;10.80;69.90
5246;DHT22;54412;51.206;6.888;2023-02-28T14:54:36;10.20;69.30
5246;DHT22;54412;51.206;6.888;2023-02-28T14:57:03;10.20;71.90
5246;DHT22;54412;51.206;6.888;2023-02-28T14:59:32;10.40;71.30
5246;DHT22;54412;51.206;6.888;2023-02-28T15:02:21;10.50;71.40
5246;DHT22;54412;51.206;6.888;2023-02-28T15:07:36;10.50;72.70
5246;DHT22;54412;51.206;6.888;2023-02-28T15:10:24;10.10;71.40
5246;DHT22;54412;51.206;6.888;2023-02-28T15:12:52;10.00;72.40
5246;DHT22;54412;51.206;6.888;2023-02-28T15:21:31;9.90;74.10
5246;DHT22;54412;51.206;6.888;2023-02-28T15:24:19;9.90;74.20
5246;DHT22;54412;51.206;6.888;2023-02-28T15:26:55;10.00;74.20
5246;DHT22;54412;51.206;6.888;2023-02-28T15:29:27;9.90;73.80
5246;DHT22;54412;51.206;6.888;2023-02-28T15:32:02;9.50;73.90
5246;DHT22;54412;51.206;6.888;2023-02-28T15:34:36;9.50;74.20
5246;DHT22;54412;51.206;6.888;2023-02-28T15:43:04;9.10;75.40
5246;DHT22;54412;51.206;6.888;2023-02-28T15:45:37;9.00;77.00
5246;DHT22;54412;51.206;6.888;2023-02-28T15:48:23;8.80;77.70
5246;DHT22;54412;51.206;6.888;2023-02-28T15:50:56;9.10;77.80
5246;DHT22;54412;51.206;6.888;2023-02-28T15:53:41;9.10;78.10
5246;DHT22;54412;51.206;6.888;2023-02-28T15:56:33;9.00;77.20
5246;DHT22;54412;51.206;6.888;2023-02-28T15:59:05;8.90;78.70
5246;DHT22;54412;51.206;6.888;2023-02-28T16:01:38;8.90;78.30
5246;DHT22;54412;51.206;6.888;2023-02-28T16:04:15;8.80;78.60
5246;DHT22;54412;51.206;6.888;2023-02-28T16:06:46;8.70;79.10
5246;DHT22;54412;51.206;6.888;2023-02-28T16:09:26;8.70;80.10
5246;DHT22;54412;51.206;6.888;2023-02-28T16:11:55;8.80;80.30
5246;DHT22;54412;51.206;6.888;2023-02-28T16:14:24;8.70;80.50
5246;DHT22;54412;51.206;6.888;2023-02-28T16:17:06;8.60;81.70
5246;DHT22;54412;51.206;6.888;2023-02-28T16:19:37;8.30;82.30
5246;DHT22;54412;51.206;6.888;2023-02-28T16:22:02;8.10;83.20
5246;DHT22;54412;51.206;6.888;2023-02-28T16:24:28;8.00;84.20
5246;DHT22;54412;51.206;6.888;2023-02-28T16:26:55;8.10;85.70
5246;DHT22;54412;51.206;6.888;2023-02-28T16:29:40;8.20;84.70
5246;DHT22;54412;51.206;6.888;2023-02-28T16:32:07;8.30;84.80
5246;DHT22;54412;51.206;6.888;2023-02-28T16:34:32;8.20;85.20
5246;DHT22;54412;51.206;6.888;2023-02-28T16:36:58;8.00;86.20
5246;DHT22;54412;51.206;6.888;2023-02-28T16:39:24;7.80;87.00
5246;DHT22;54412;51.206;6.888;2023-02-28T16:41:50;7.70;90.70
5246;DHT22;54412;51.206;6.888;2023-02-28T16:44:32;7.70;92.00
5246;DHT22;54412;51.206;6.888;2023-02-28T16:47:00;7.70;91.40
5246;DHT22;54412;51.206;6.888;2023-02-28T16:49:27;7.60;90.80
5246;DHT22;54412;51.206;6.888;2023-02-28T16:51:53;7.50;90.70
5246;DHT22;54412;51.206;6.888;2023-02-28T16:54:19;7.50;90.90
5246;DHT22;54412;51.206;6.888;2023-02-28T16:56:46;7.40;90.90
5246;DHT22;54412;51.206;6.888;2023-02-28T16:59:17;7.30;91.30
5246;DHT22;54412;51.206;6.888;2023-02-28T17:01:46;7.40;91.20
5246;DHT22;54412;51.206;6.888;2023-02-28T17:04:12;7.40;91.50
5246;DHT22;54412;51.206;6.888;2023-02-28T17:06:39;7.40;91.20
5246;DHT22;54412;51.206;6.888;2023-02-28T17:09:05;7.30;91.50
5246;DHT22;54412;51.206;6.888;2023-02-28T17:11:33;7.20;91.80
5246;DHT22;54412;51.206;6.888;2023-02-28T17:13:59;7.10;92.30
5246;DHT22;54412;51.206;6.888;2023-02-28T17:16:31;7.10;92.60
5246;DHT22;54412;51.206;6.888;2023-02-28T17:19:04;7.00;92.60
5246;DHT22;54412;51.206;6.888;2023-02-28T17:21:32;6.90;93.10
5246;DHT22;54412;51.206;6.888;2023-02-28T17:23:59;6.80;93.30
5246;DHT22;54412;51.206;6.888;2023-02-28T17:26:25;6.70;93.50
5246;DHT22;54412;51.206;6.888;2023-02-28T17:28:53;6.70;93.70
5246;DHT22;54412;51.206;6.888;2023-02-28T17:31:25;6.70;93.80
5246;DHT22;54412;51.206;6.888;2023-02-28T17:33:52;6.60;93.90
5246;DHT22;54412;51.206;6.888;2023-02-28T17:36:25;6.60;94.00
5246;DHT22;54412;51.206;6.888;2023-02-28T17:38:53;6.70;94.40
5246;DHT22;54412;51.206;6.888;2023-02-28T17:41:20;6.50;94.60
5246;DHT22;54412;51.206;6.888;2023-02-28T17:43:46;6.50;95.00
5246;DHT22;54412;51.206;6.888;2023-02-28T17:46:20;6.40;95.40
5246;DHT22;54412;51.206;6.888;2023-02-28T17:48:49;6.30;95.70
5246;DHT22;54412;51.206;6.888;2023-02-28T17:51:16;6.30;96.00
5246;DHT22;54412;51.206;6.888;2023-02-28T17:53:44;6.30;96.10
5246;DHT22;54412;51.206;6.888;2023-02-28T17:56:24;6.50;96.30
5246;DHT22;54412;51.206;6.888;2023-02-28T17:58:53;6.50;96.10
5246;DHT22;54412;51.206;6.888;2023-02-28T18:01:21;6.40;96.50
5246;DHT22;54412;51.206;6.888;2023-02-28T18:03:49;6.20;97.00
5246;DHT22;54412;51.206;6.888;2023-02-28T18:06:24;6.20;97.50
5246;DHT22;54412;51.206;6.888;2023-02-28T18:09:00;6.40;97.40
5246;DHT22;54412;51.206;6.888;2023-02-28T18:11:25;6.20;97.50
5246;DHT22;54412;51.206;6.888;2023-02-28T18:14:08;6.10;97.90
5246;DHT22;54412;51.206;6.888;2023-02-28T18:16:34;6.20;98.10
5246;DHT22;54412;51.206;6.888;2023-02-28T18:18:59;6.10;98.30
5246;DHT22;54412;51.206;6.888;2023-02-28T18:21:27;6.00;98.60
5246;DHT22;54412;51.206;6.888;2023-02-28T18:23:53;5.80;99.20
5246;DHT22;54412;51.206;6.888;2023-02-28T18:26:19;5.90;99.50
5246;DHT22;54412;51.206;6.888;2023-02-28T18:28:45;6.00;99.40
5246;DHT22;54412;51.206;6.888;2023-02-28T18:31:14;5.90;99.70
5246;DHT22;54412;51.206;6.888;2023-02-28T18:33:43;6.10;99.60
5246;DHT22;54412;51.206;6.888;2023-02-28T18:36:17;6.20;99.70
5246;DHT22;54412;51.206;6.888;2023-02-28T18:38:45;6.10;99.90
5246;DHT22;54412;51.206;6.888;2023-02-28T18:41:12;6.00;99.90
5246;DHT22;54412;51.206;6.888;2023-02-28T18:43:37;5.90;99.90
5246;DHT22;54412;51.206;6.888;2023-02-28T18:46:05;6.00;99.90
5246;DHT22;54412;51.206;6.888;2023-02-28T18:48:38;6.00;99.90
5246;DHT22;54412;51.206;6.888;2023-02-28T18:51:09;6.10;99.90
5246;DHT22;54412;51.206;6.888;2023-02-28T18:53:37;6.00;99.90
5246;DHT22;54412;51.206;6.888;2023-02-28T18:56:05;6.00;99.90
5246;DHT22;54412;51.206;6.888;2023-02-28T18:58:32;6.00;99.90
5246;DHT22;54412;51.206;6.888;2023-02-28T19:01:00;5.90;99.90
5246;DHT22;54412;51.206;6.888;2023-02-28T19:03:27;5.80;99.90
5246;DHT22;54412;51.206;6.888;2023-02-28T19:05:57;5.80;99.90
5246;DHT22;54412;51.206;6.888;2023-02-28T19:08:24;5.80;99.90